sensor_id;sensor_type;location;lat;lon;timestamp;P1;durP1;ratioP1;P2;durP2;ratioP2
18170;SDS011;9210;48.358;10.902;2022-12-18T00:00:06;150.90;;;39.77;;
18170;SDS011;9210;48.358;10.902;2022-12-18T00:02:42;154.90;;;39.57;;
18170;SDS011;9210;48.358;10.902;2022-12-18T00:05:11;142.43;;;37.57;;
18170;SDS011;9210;48.358;10.902;2022-12-18T00:07:40;124.03;;;37.27;;
18170;SDS011;9210;48.358;10.902;2022-12-18T00:10:08;142.77;;;38.60;;
18170;SDS011;9210;48.358;10.902;2022-12-18T00:12:42;131.13;;;37.73;;
18170;SDS011;9210;48.358;10.902;2022-12-18T00:15:10;127.40;;;36.50;;
18170;SDS011;9210;48.358;10.902;2022-12-18T00:17:39;118.97;;;35.70;;
18170;SDS011;9210;48.358;10.902;2022-12-18T00:20:07;145.43;;;37.93;;
18170;SDS011;9210;48.358;10.902;2022-12-18T00:22:37;139.63;;;35.57;;
18170;SDS011;9210;48.358;10.902;2022-12-18T00:25:07;119.20;;;33.20;;
18170;SDS011;9210;48.358;10.902;2022-12-18T00:27:35;120.80;;;33.53;;
18170;SDS011;9210;48.358;10.902;2022-12-18T00:30:06;126.17;;;34.33;;
18170;SDS011;9210;48.358;10.902;2022-12-18T00:32:35;118.33;;;34.97;;
18170;SDS011;9210;48.358;10.902;2022-12-18T00:35:04;134.77;;;36.30;;
18170;SDS011;9210;48.358;10.902;2022-12-18T00:37:33;126.53;;;35.00;;
18170;SDS011;9210;48.358;10.902;2022-12-18T00:40:01;112.40;;;33.10;;
18170;SDS011;9210;48.358;10.902;2022-12-18T00:42:29;123.43;;;34.70;;
18170;SDS011;9210;48.358;10.902;2022-12-18T00:45:16;104.00;;;32.50;;
18170;SDS011;9210;48.358;10.902;2022-12-18T00:47:45;114.70;;;33.37;;
18170;SDS011;9210;48.358;10.902;2022-12-18T00:50:13;120.33;;;33.63;;
18170;SDS011;9210;48.358;10.902;2022-12-18T00:52:42;115.57;;;32.97;;
18170;SDS011;9210;48.358;10.902;2022-12-18T00:55:10;125.10;;;33.73;;
18170;SDS011;9210;48.358;10.902;2022-12-18T00:57:39;113.10;;;31.47;;
18170;SDS011;9210;48.358;10.902;2022-12-18T01:00:09;119.97;;;33.43;;
18170;SDS011;9210;48.358;10.902;2022-12-18T01:02:41;115.50;;;31.70;;
18170;SDS011;9210;48.358;10.902;2022-12-18T01:05:12;134.57;;;34.63;;
18170;SDS011;9210;48.358;10.902;2022-12-18T01:07:40;122.70;;;34.17;;
18170;SDS011;9210;48.358;10.902;2022-12-18T01:12:41;113.37;;;33.97;;
18170;SDS011;9210;48.358;10.902;2022-12-18T01:15:09;117.60;;;34.87;;
18170;SDS011;9210;48.358;10.902;2022-12-18T01:17:39;108.83;;;33.23;;
18170;SDS011;9210;48.358;10.902;2022-12-18T01:20:10;120.47;;;33.30;;
18170;SDS011;9210;48.358;10.902;2022-12-18T01:22:39;132.63;;;33.87;;
18170;SDS011;9210;48.358;10.902;2022-12-18T01:25:08;117.60;;;33.50;;
18170;SDS011;9210;48.358;10.902;2022-12-18T01:27:36;143.63;;;35.43;;
18170;SDS011;9210;48.358;10.902;2022-12-18T01:30:05;134.13;;;34.90;;
18170;SDS011;9210;48.358;10.902;2022-12-18T01:32:34;147.97;;;36.27;;
18170;SDS011;9210;48.358;10.902;2022-12-18T01:35:03;144.73;;;36.27;;
18170;SDS011;9210;48.358;10.902;2022-12-18T01:37:33;135.70;;;36.60;;
18170;SDS011;9210;48.358;10.902;2022-12-18T01:40:02;133.37;;;36.73;;
18170;SDS011;9210;48.358;10.902;2022-12-18T01:42:31;149.73;;;38.37;;
18170;SDS011;9210;48.358;10.902;2022-12-18T01:45:00;156.50;;;36.47;;
18170;SDS011;9210;48.358;10.902;2022-12-18T01:47:35;145.57;;;35.37;;
18170;SDS011;9210;48.358;10.902;2022-12-18T01:50:08;152.80;;;37.63;;
18170;SDS011;9210;48.358;10.902;2022-12-18T01:52:40;142.90;;;35.70;;
18170;SDS011;9210;48.358;10.902;2022-12-18T01:55:10;154.37;;;38.77;;
18170;SDS011;9210;48.358;10.902;2022-12-18T01:57:39;180.97;;;38.43;;
18170;SDS011;9210;48.358;10.902;2022-12-18T02:00:09;147.37;;;36.27;;
18170;SDS011;9210;48.358;10.902;2022-12-18T02:02:40;156.63;;;36.33;;
18170;SDS011;9210;48.358;10.902;2022-12-18T02:05:11;158.97;;;36.87;;
18170;SDS011;9210;48.358;10.902;2022-12-18T02:07:45;211.70;;;43.23;;
18170;SDS011;9210;48.358;10.902;2022-12-18T02:10:24;158.80;;;36.70;;
18170;SDS011;9210;48.358;10.902;2022-12-18T02:12:59;143.53;;;36.47;;
18170;SDS011;9210;48.358;10.902;2022-12-18T02:15:34;185.60;;;38.60;;
18170;SDS011;9210;48.358;10.902;2022-12-18T02:18:07;195.47;;;37.03;;
18170;SDS011;9210;48.358;10.902;2022-12-18T02:20:40;182.10;;;38.47;;
18170;SDS011;9210;48.358;10.902;2022-12-18T02:23:16;166.07;;;37.90;;
18170;SDS011;9210;48.358;10.902;2022-12-18T02:26:01;248.47;;;42.50;;
18170;SDS011;9210;48.358;10.902;2022-12-18T02:28:35;166.70;;;39.00;;
18170;SDS011;9210;48.358;10.902;2022-12-18T02:31:07;164.60;;;38.23;;
18170;SDS011;9210;48.358;10.902;2022-12-18T02:33:41;180.50;;;38.37;;
18170;SDS011;9210;48.358;10.902;2022-12-18T02:36:12;183.33;;;39.23;;
18170;SDS011;9210;48.358;10.902;2022-12-18T02:38:43;139.40;;;34.80;;
18170;SDS011;9210;48.358;10.902;2022-12-18T02:41:16;170.90;;;36.97;;
18170;SDS011;9210;48.358;10.902;2022-12-18T02:43:46;217.43;;;39.87;;
18170;SDS011;9210;48.358;10.902;2022-12-18T02:46:26;168.60;;;36.77;;
18170;SDS011;9210;48.358;10.902;2022-12-18T02:49:10;181.43;;;38.13;;
18170;SDS011;9210;48.358;10.902;2022-12-18T02:51:50;145.60;;;34.10;;
18170;SDS011;9210;48.358;10.902;2022-12-18T02:54:29;147.03;;;34.93;;
18170;SDS011;9210;48.358;10.902;2022-12-18T02:57:15;168.00;;;35.67;;
18170;SDS011;9210;48.358;10.902;2022-12-18T02:59:55;136.80;;;32.30;;
18170;SDS011;9210;48.358;10.902;2022-12-18T03:02:26;139.13;;;33.80;;
18170;SDS011;9210;48.358;10.902;2022-12-18T03:05:03;169.73;;;34.27;;
18170;SDS011;9210;48.358;10.902;2022-12-18T03:07:36;150.57;;;34.50;;
18170;SDS011;9210;48.358;10.902;2022-12-18T03:10:10;120.83;;;30.37;;
18170;SDS011;9210;48.358;10.902;2022-12-18T03:12:44;138.27;;;32.53;;
18170;SDS011;9210;48.358;10.902;2022-12-18T03:15:19;136.10;;;34.20;;
18170;SDS011;9210;48.358;10.902;2022-12-18T03:17:59;128.57;;;30.50;;
18170;SDS011;9210;48.358;10.902;2022-12-18T03:20:30;153.90;;;33.67;;
18170;SDS011;9210;48.358;10.902;2022-12-18T03:23:02;136.80;;;31.83;;
18170;SDS011;9210;48.358;10.902;2022-12-18T03:25:34;138.20;;;31.70;;
18170;SDS011;9210;48.358;10.902;2022-12-18T03:28:09;149.97;;;29.27;;
18170;SDS011;9210;48.358;10.902;2022-12-18T03:30:43;154.37;;;30.47;;
18170;SDS011;9210;48.358;10.902;2022-12-18T03:33:15;117.60;;;28.67;;
18170;SDS011;9210;48.358;10.902;2022-12-18T03:35:49;114.83;;;28.33;;
18170;SDS011;9210;48.358;10.902;2022-12-18T03:38:18;139.10;;;29.93;;
18170;SDS011;9210;48.358;10.902;2022-12-18T03:40:53;131.83;;;29.17;;
18170;SDS011;9210;48.358;10.902;2022-12-18T03:43:38;136.30;;;30.27;;
18170;SDS011;9210;48.358;10.902;2022-12-18T03:46:14;111.97;;;28.77;;
18170;SDS011;9210;48.358;10.902;2022-12-18T03:48:48;129.17;;;29.57;;
18170;SDS011;9210;48.358;10.902;2022-12-18T03:51:24;117.33;;;28.57;;
18170;SDS011;9210;48.358;10.902;2022-12-18T03:53:58;117.13;;;27.10;;
18170;SDS011;9210;48.358;10.902;2022-12-18T03:56:38;137.70;;;31.27;;
18170;SDS011;9210;48.358;10.902;2022-12-18T03:59:13;123.67;;;28.13;;
18170;SDS011;9210;48.358;10.902;2022-12-18T04:01:45;118.90;;;28.10;;
18170;SDS011;9210;48.358;10.902;2022-12-18T04:04:16;138.10;;;28.47;;
18170;SDS011;9210;48.358;10.902;2022-12-18T04:06:46;149.17;;;29.73;;
18170;SDS011;9210;48.358;10.902;2022-12-18T04:09:18;141.83;;;31.50;;
18170;SDS011;9210;48.358;10.902;2022-12-18T04:11:48;122.97;;;30.30;;
18170;SDS011;9210;48.358;10.902;2022-12-18T04:14:17;161.70;;;33.40;;
18170;SDS011;9210;48.358;10.902;2022-12-18T04:16:50;131.03;;;29.07;;
18170;SDS011;9210;48.358;10.902;2022-12-18T04:19:22;116.47;;;28.33;;
18170;SDS011;9210;48.358;10.902;2022-12-18T04:21:52;133.60;;;31.00;;
18170;SDS011;9210;48.358;10.902;2022-12-18T04:24:21;122.27;;;29.23;;
18170;SDS011;9210;48.358;10.902;2022-12-18T04:27:03;121.93;;;27.43;;
18170;SDS011;9210;48.358;10.902;2022-12-18T04:29:41;133.47;;;29.30;;
18170;SDS011;9210;48.358;10.902;2022-12-18T04:32:09;110.03;;;27.33;;
18170;SDS011;9210;48.358;10.902;2022-12-18T04:34:40;115.97;;;28.80;;
18170;SDS011;9210;48.358;10.902;2022-12-18T04:37:08;117.10;;;28.97;;
18170;SDS011;9210;48.358;10.902;2022-12-18T04:39:38;109.30;;;27.17;;
18170;SDS011;9210;48.358;10.902;2022-12-18T04:42:13;122.77;;;27.87;;
18170;SDS011;9210;48.358;10.902;2022-12-18T04:44:43;153.53;;;31.63;;
18170;SDS011;9210;48.358;10.902;2022-12-18T04:47:11;142.13;;;28.87;;
18170;SDS011;9210;48.358;10.902;2022-12-18T04:49:39;119.20;;;28.40;;
18170;SDS011;9210;48.358;10.902;2022-12-18T04:52:08;105.57;;;29.13;;
18170;SDS011;9210;48.358;10.902;2022-12-18T04:54:36;140.97;;;30.03;;
18170;SDS011;9210;48.358;10.902;2022-12-18T04:57:05;113.83;;;29.83;;
18170;SDS011;9210;48.358;10.902;2022-12-18T04:59:33;115.20;;;28.73;;
18170;SDS011;9210;48.358;10.902;2022-12-18T05:02:03;106.03;;;29.40;;
18170;SDS011;9210;48.358;10.902;2022-12-18T05:04:31;111.27;;;28.63;;
18170;SDS011;9210;48.358;10.902;2022-12-18T05:06:59;119.73;;;30.57;;
18170;SDS011;9210;48.358;10.902;2022-12-18T05:09:27;116.07;;;29.47;;
18170;SDS011;9210;48.358;10.902;2022-12-18T05:11:56;127.23;;;29.70;;
18170;SDS011;9210;48.358;10.902;2022-12-18T05:14:24;109.70;;;29.13;;
18170;SDS011;9210;48.358;10.902;2022-12-18T05:16:53;111.07;;;28.37;;
18170;SDS011;9210;48.358;10.902;2022-12-18T05:19:27;115.43;;;28.30;;
18170;SDS011;9210;48.358;10.902;2022-12-18T05:21:56;114.20;;;28.90;;
18170;SDS011;9210;48.358;10.902;2022-12-18T05:24:24;133.40;;;30.40;;
18170;SDS011;9210;48.358;10.902;2022-12-18T05:26:53;123.37;;;29.90;;
18170;SDS011;9210;48.358;10.902;2022-12-18T05:29:22;102.03;;;27.07;;
18170;SDS011;9210;48.358;10.902;2022-12-18T05:31:50;122.30;;;30.10;;
18170;SDS011;9210;48.358;10.902;2022-12-18T05:34:19;138.90;;;31.23;;
18170;SDS011;9210;48.358;10.902;2022-12-18T05:36:48;123.93;;;30.87;;
18170;SDS011;9210;48.358;10.902;2022-12-18T05:39:17;137.20;;;31.60;;
18170;SDS011;9210;48.358;10.902;2022-12-18T05:41:45;153.53;;;33.53;;
18170;SDS011;9210;48.358;10.902;2022-12-18T05:44:13;114.40;;;29.30;;
18170;SDS011;9210;48.358;10.902;2022-12-18T05:46:42;124.83;;;28.70;;
18170;SDS011;9210;48.358;10.902;2022-12-18T05:49:10;111.10;;;27.67;;
18170;SDS011;9210;48.358;10.902;2022-12-18T05:51:39;129.17;;;28.97;;
18170;SDS011;9210;48.358;10.902;2022-12-18T05:54:09;133.43;;;29.30;;
18170;SDS011;9210;48.358;10.902;2022-12-18T05:56:37;132.17;;;32.10;;
18170;SDS011;9210;48.358;10.902;2022-12-18T05:59:13;142.70;;;31.33;;
18170;SDS011;9210;48.358;10.902;2022-12-18T06:01:42;127.83;;;30.27;;
18170;SDS011;9210;48.358;10.902;2022-12-18T06:04:10;134.53;;;31.00;;
18170;SDS011;9210;48.358;10.902;2022-12-18T06:06:39;130.47;;;29.97;;
18170;SDS011;9210;48.358;10.902;2022-12-18T06:09:07;108.93;;;27.67;;
18170;SDS011;9210;48.358;10.902;2022-12-18T06:11:37;137.93;;;32.47;;
18170;SDS011;9210;48.358;10.902;2022-12-18T06:14:05;132.50;;;31.67;;
18170;SDS011;9210;48.358;10.902;2022-12-18T06:16:34;130.17;;;28.93;;
18170;SDS011;9210;48.358;10.902;2022-12-18T06:19:03;116.43;;;29.07;;
18170;SDS011;9210;48.358;10.902;2022-12-18T06:21:34;150.07;;;30.87;;
18170;SDS011;9210;48.358;10.902;2022-12-18T06:24:02;120.60;;;29.13;;
18170;SDS011;9210;48.358;10.902;2022-12-18T06:26:31;115.03;;;27.97;;
18170;SDS011;9210;48.358;10.902;2022-12-18T06:29:01;123.57;;;29.23;;
18170;SDS011;9210;48.358;10.902;2022-12-18T06:31:29;124.27;;;30.90;;
18170;SDS011;9210;48.358;10.902;2022-12-18T06:33:58;115.00;;;28.43;;
18170;SDS011;9210;48.358;10.902;2022-12-18T06:36:26;108.83;;;28.77;;
18170;SDS011;9210;48.358;10.902;2022-12-18T06:38:55;110.60;;;29.13;;
18170;SDS011;9210;48.358;10.902;2022-12-18T06:41:24;112.90;;;27.67;;
18170;SDS011;9210;48.358;10.902;2022-12-18T06:43:53;105.17;;;28.13;;
18170;SDS011;9210;48.358;10.902;2022-12-18T06:46:26;114.20;;;28.40;;
18170;SDS011;9210;48.358;10.902;2022-12-18T06:48:55;118.17;;;29.83;;
18170;SDS011;9210;48.358;10.902;2022-12-18T06:51:23;119.60;;;27.97;;
18170;SDS011;9210;48.358;10.902;2022-12-18T06:53:52;106.87;;;27.93;;
18170;SDS011;9210;48.358;10.902;2022-12-18T06:56:21;113.20;;;28.83;;
18170;SDS011;9210;48.358;10.902;2022-12-18T06:58:50;107.77;;;27.37;;
18170;SDS011;9210;48.358;10.902;2022-12-18T07:01:18;99.60;;;26.20;;
18170;SDS011;9210;48.358;10.902;2022-12-18T07:03:50;103.57;;;26.67;;
18170;SDS011;9210;48.358;10.902;2022-12-18T07:06:20;89.93;;;26.13;;
18170;SDS011;9210;48.358;10.902;2022-12-18T07:08:48;94.53;;;25.33;;
18170;SDS011;9210;48.358;10.902;2022-12-18T07:11:17;94.40;;;26.33;;
18170;SDS011;9210;48.358;10.902;2022-12-18T07:13:46;117.07;;;28.20;;
18170;SDS011;9210;48.358;10.902;2022-12-18T07:16:15;123.30;;;28.27;;
18170;SDS011;9210;48.358;10.902;2022-12-18T07:18:52;113.33;;;28.57;;
18170;SDS011;9210;48.358;10.902;2022-12-18T07:21:22;87.07;;;23.90;;
18170;SDS011;9210;48.358;10.902;2022-12-18T07:23:51;97.23;;;28.27;;
18170;SDS011;9210;48.358;10.902;2022-12-18T07:26:20;103.20;;;27.93;;
18170;SDS011;9210;48.358;10.902;2022-12-18T07:28:49;98.87;;;25.80;;
18170;SDS011;9210;48.358;10.902;2022-12-18T07:31:18;95.03;;;27.03;;
18170;SDS011;9210;48.358;10.902;2022-12-18T07:33:47;106.30;;;27.73;;
18170;SDS011;9210;48.358;10.902;2022-12-18T07:36:17;101.80;;;27.70;;
18170;SDS011;9210;48.358;10.902;2022-12-18T07:38:46;88.50;;;26.50;;
18170;SDS011;9210;48.358;10.902;2022-12-18T07:41:15;92.63;;;25.97;;
18170;SDS011;9210;48.358;10.902;2022-12-18T07:43:45;100.40;;;27.03;;
18170;SDS011;9210;48.358;10.902;2022-12-18T07:46:13;85.13;;;25.63;;
18170;SDS011;9210;48.358;10.902;2022-12-18T07:48:42;115.77;;;32.23;;
18170;SDS011;9210;48.358;10.902;2022-12-18T07:51:15;97.03;;;26.20;;
18170;SDS011;9210;48.358;10.902;2022-12-18T07:53:45;91.33;;;24.73;;
18170;SDS011;9210;48.358;10.902;2022-12-18T07:56:18;90.47;;;26.67;;
18170;SDS011;9210;48.358;10.902;2022-12-18T07:58:53;94.90;;;25.80;;
18170;SDS011;9210;48.358;10.902;2022-12-18T08:01:22;99.77;;;30.13;;
18170;SDS011;9210;48.358;10.902;2022-12-18T08:03:51;90.50;;;26.77;;
18170;SDS011;9210;48.358;10.902;2022-12-18T08:06:19;94.57;;;29.07;;
18170;SDS011;9210;48.358;10.902;2022-12-18T08:08:51;89.20;;;25.47;;
18170;SDS011;9210;48.358;10.902;2022-12-18T08:11:20;87.93;;;24.57;;
18170;SDS011;9210;48.358;10.902;2022-12-18T08:13:48;80.00;;;23.87;;
18170;SDS011;9210;48.358;10.902;2022-12-18T08:16:17;88.17;;;26.53;;
18170;SDS011;9210;48.358;10.902;2022-12-18T08:18:46;80.97;;;25.30;;
18170;SDS011;9210;48.358;10.902;2022-12-18T08:21:16;85.33;;;24.73;;
18170;SDS011;9210;48.358;10.902;2022-12-18T08:23:47;84.30;;;25.43;;
18170;SDS011;9210;48.358;10.902;2022-12-18T08:26:18;83.07;;;23.73;;
18170;SDS011;9210;48.358;10.902;2022-12-18T08:28:47;84.87;;;24.73;;
18170;SDS011;9210;48.358;10.902;2022-12-18T08:31:16;89.73;;;24.50;;
18170;SDS011;9210;48.358;10.902;2022-12-18T08:33:48;98.23;;;29.33;;
18170;SDS011;9210;48.358;10.902;2022-12-18T08:36:17;90.40;;;26.40;;
18170;SDS011;9210;48.358;10.902;2022-12-18T08:38:45;95.13;;;26.70;;
18170;SDS011;9210;48.358;10.902;2022-12-18T08:41:15;81.00;;;24.80;;
18170;SDS011;9210;48.358;10.902;2022-12-18T08:43:45;87.77;;;24.23;;
18170;SDS011;9210;48.358;10.902;2022-12-18T08:46:32;80.97;;;23.53;;
18170;SDS011;9210;48.358;10.902;2022-12-18T08:49:02;85.90;;;26.13;;
18170;SDS011;9210;48.358;10.902;2022-12-18T08:51:31;81.03;;;24.30;;
18170;SDS011;9210;48.358;10.902;2022-12-18T08:53:59;94.70;;;26.20;;
18170;SDS011;9210;48.358;10.902;2022-12-18T08:56:29;94.67;;;28.63;;
18170;SDS011;9210;48.358;10.902;2022-12-18T08:58:59;93.67;;;26.77;;
18170;SDS011;9210;48.358;10.902;2022-12-18T09:01:28;91.00;;;26.00;;
18170;SDS011;9210;48.358;10.902;2022-12-18T09:03:57;84.80;;;24.93;;
18170;SDS011;9210;48.358;10.902;2022-12-18T09:06:26;79.77;;;24.13;;
18170;SDS011;9210;48.358;10.902;2022-12-18T09:08:54;83.73;;;23.30;;
18170;SDS011;9210;48.358;10.902;2022-12-18T09:11:24;75.77;;;22.83;;
18170;SDS011;9210;48.358;10.902;2022-12-18T09:13:54;81.47;;;24.33;;
18170;SDS011;9210;48.358;10.902;2022-12-18T09:16:25;76.97;;;23.43;;
18170;SDS011;9210;48.358;10.902;2022-12-18T09:18:58;86.47;;;23.50;;
18170;SDS011;9210;48.358;10.902;2022-12-18T09:21:27;81.47;;;25.03;;
18170;SDS011;9210;48.358;10.902;2022-12-18T09:24:01;82.10;;;24.37;;
18170;SDS011;9210;48.358;10.902;2022-12-18T09:26:30;74.57;;;23.37;;
18170;SDS011;9210;48.358;10.902;2022-12-18T09:28:58;78.50;;;23.90;;
18170;SDS011;9210;48.358;10.902;2022-12-18T09:31:29;74.73;;;24.07;;
18170;SDS011;9210;48.358;10.902;2022-12-18T09:33:57;78.00;;;25.00;;
18170;SDS011;9210;48.358;10.902;2022-12-18T09:36:25;83.83;;;24.83;;
18170;SDS011;9210;48.358;10.902;2022-12-18T09:38:54;81.03;;;23.13;;
18170;SDS011;9210;48.358;10.902;2022-12-18T09:41:31;80.93;;;24.43;;
18170;SDS011;9210;48.358;10.902;2022-12-18T09:44:22;90.90;;;25.73;;
18170;SDS011;9210;48.358;10.902;2022-12-18T09:46:56;88.33;;;25.97;;
18170;SDS011;9210;48.358;10.902;2022-12-18T09:49:31;81.40;;;24.93;;
18170;SDS011;9210;48.358;10.902;2022-12-18T09:52:03;79.17;;;24.43;;
18170;SDS011;9210;48.358;10.902;2022-12-18T09:54:36;78.07;;;24.07;;
18170;SDS011;9210;48.358;10.902;2022-12-18T09:57:10;73.93;;;22.80;;
18170;SDS011;9210;48.358;10.902;2022-12-18T09:59:39;83.13;;;24.20;;
18170;SDS011;9210;48.358;10.902;2022-12-18T10:02:14;79.57;;;24.50;;
18170;SDS011;9210;48.358;10.902;2022-12-18T10:04:44;81.33;;;24.23;;
18170;SDS011;9210;48.358;10.902;2022-12-18T10:07:17;80.43;;;23.60;;
18170;SDS011;9210;48.358;10.902;2022-12-18T10:09:49;85.53;;;24.47;;
18170;SDS011;9210;48.358;10.902;2022-12-18T10:12:23;78.10;;;23.60;;
18170;SDS011;9210;48.358;10.902;2022-12-18T10:15:00;82.50;;;24.97;;
18170;SDS011;9210;48.358;10.902;2022-12-18T10:17:33;78.90;;;25.87;;
18170;SDS011;9210;48.358;10.902;2022-12-18T10:20:09;86.77;;;24.47;;
18170;SDS011;9210;48.358;10.902;2022-12-18T10:22:43;87.67;;;26.07;;
18170;SDS011;9210;48.358;10.902;2022-12-18T10:25:15;76.77;;;24.57;;
18170;SDS011;9210;48.358;10.902;2022-12-18T10:27:46;86.77;;;25.20;;
18170;SDS011;9210;48.358;10.902;2022-12-18T10:30:15;82.60;;;24.47;;
18170;SDS011;9210;48.358;10.902;2022-12-18T10:32:46;82.13;;;25.63;;
18170;SDS011;9210;48.358;10.902;2022-12-18T10:35:16;89.13;;;25.60;;
18170;SDS011;9210;48.358;10.902;2022-12-18T10:40:48;85.33;;;25.63;;
18170;SDS011;9210;48.358;10.902;2022-12-18T10:43:19;93.70;;;26.03;;
18170;SDS011;9210;48.358;10.902;2022-12-18T10:46:02;79.90;;;23.57;;
18170;SDS011;9210;48.358;10.902;2022-12-18T10:48:35;90.23;;;26.13;;
18170;SDS011;9210;48.358;10.902;2022-12-18T10:51:05;132.13;;;36.20;;
18170;SDS011;9210;48.358;10.902;2022-12-18T10:53:38;100.73;;;29.30;;
18170;SDS011;9210;48.358;10.902;2022-12-18T10:56:09;89.43;;;25.97;;
18170;SDS011;9210;48.358;10.902;2022-12-18T10:58:39;85.00;;;26.77;;
18170;SDS011;9210;48.358;10.902;2022-12-18T11:01:10;78.43;;;24.27;;
18170;SDS011;9210;48.358;10.902;2022-12-18T11:03:41;86.10;;;25.80;;
18170;SDS011;9210;48.358;10.902;2022-12-18T11:06:11;91.80;;;28.80;;
18170;SDS011;9210;48.358;10.902;2022-12-18T11:08:40;83.60;;;25.13;;
18170;SDS011;9210;48.358;10.902;2022-12-18T11:11:15;86.03;;;25.03;;
18170;SDS011;9210;48.358;10.902;2022-12-18T11:13:58;81.40;;;25.33;;
18170;SDS011;9210;48.358;10.902;2022-12-18T11:16:27;77.83;;;24.83;;
18170;SDS011;9210;48.358;10.902;2022-12-18T11:19:10;88.30;;;26.80;;
18170;SDS011;9210;48.358;10.902;2022-12-18T11:21:49;76.90;;;22.60;;
18170;SDS011;9210;48.358;10.902;2022-12-18T11:24:20;79.13;;;26.43;;
18170;SDS011;9210;48.358;10.902;2022-12-18T11:26:51;83.00;;;25.67;;
18170;SDS011;9210;48.358;10.902;2022-12-18T11:29:28;70.27;;;23.43;;
18170;SDS011;9210;48.358;10.902;2022-12-18T11:34:46;74.93;;;23.67;;
18170;SDS011;9210;48.358;10.902;2022-12-18T11:37:24;76.43;;;23.33;;
18170;SDS011;9210;48.358;10.902;2022-12-18T11:39:54;82.13;;;25.23;;
18170;SDS011;9210;48.358;10.902;2022-12-18T11:42:25;76.87;;;24.13;;
18170;SDS011;9210;48.358;10.902;2022-12-18T11:44:57;76.43;;;24.47;;
18170;SDS011;9210;48.358;10.902;2022-12-18T11:47:28;78.63;;;24.67;;
18170;SDS011;9210;48.358;10.902;2022-12-18T11:50:00;87.97;;;25.30;;
18170;SDS011;9210;48.358;10.902;2022-12-18T11:52:31;77.07;;;24.13;;
18170;SDS011;9210;48.358;10.902;2022-12-18T11:55:04;83.87;;;26.47;;
18170;SDS011;9210;48.358;10.902;2022-12-18T11:57:36;74.07;;;24.50;;
18170;SDS011;9210;48.358;10.902;2022-12-18T12:00:11;78.27;;;24.73;;
18170;SDS011;9210;48.358;10.902;2022-12-18T12:02:45;84.43;;;25.03;;
18170;SDS011;9210;48.358;10.902;2022-12-18T12:05:23;75.60;;;24.77;;
18170;SDS011;9210;48.358;10.902;2022-12-18T12:07:58;81.23;;;25.33;;
18170;SDS011;9210;48.358;10.902;2022-12-18T12:10:35;75.10;;;24.53;;
18170;SDS011;9210;48.358;10.902;2022-12-18T12:15:59;82.00;;;25.63;;
18170;SDS011;9210;48.358;10.902;2022-12-18T12:18:32;78.20;;;25.37;;
18170;SDS011;9210;48.358;10.902;2022-12-18T12:21:07;76.53;;;24.10;;
18170;SDS011;9210;48.358;10.902;2022-12-18T12:23:40;79.53;;;25.67;;
18170;SDS011;9210;48.358;10.902;2022-12-18T12:26:11;72.87;;;24.13;;
18170;SDS011;9210;48.358;10.902;2022-12-18T12:28:51;92.23;;;27.90;;
18170;SDS011;9210;48.358;10.902;2022-12-18T12:31:23;96.73;;;28.60;;
18170;SDS011;9210;48.358;10.902;2022-12-18T12:34:00;80.07;;;25.10;;
18170;SDS011;9210;48.358;10.902;2022-12-18T12:36:41;77.07;;;24.27;;
18170;SDS011;9210;48.358;10.902;2022-12-18T12:39:27;84.63;;;24.87;;
18170;SDS011;9210;48.358;10.902;2022-12-18T12:41:58;82.70;;;25.00;;
18170;SDS011;9210;48.358;10.902;2022-12-18T12:44:45;75.57;;;23.13;;
18170;SDS011;9210;48.358;10.902;2022-12-18T12:47:23;81.27;;;24.10;;
18170;SDS011;9210;48.358;10.902;2022-12-18T12:49:56;87.40;;;25.53;;
18170;SDS011;9210;48.358;10.902;2022-12-18T12:52:29;82.17;;;23.93;;
18170;SDS011;9210;48.358;10.902;2022-12-18T12:54:59;91.23;;;25.33;;
18170;SDS011;9210;48.358;10.902;2022-12-18T12:57:30;86.77;;;24.63;;
18170;SDS011;9210;48.358;10.902;2022-12-18T13:00:04;95.83;;;26.03;;
18170;SDS011;9210;48.358;10.902;2022-12-18T13:02:33;92.20;;;25.30;;
18170;SDS011;9210;48.358;10.902;2022-12-18T13:05:06;69.30;;;22.47;;
18170;SDS011;9210;48.358;10.902;2022-12-18T13:07:39;88.83;;;26.30;;
18170;SDS011;9210;48.358;10.902;2022-12-18T13:12:55;85.30;;;27.37;;
18170;SDS011;9210;48.358;10.902;2022-12-18T13:15:24;90.27;;;26.43;;
18170;SDS011;9210;48.358;10.902;2022-12-18T13:18:02;80.47;;;24.73;;
18170;SDS011;9210;48.358;10.902;2022-12-18T13:20:32;83.37;;;24.70;;
18170;SDS011;9210;48.358;10.902;2022-12-18T13:23:17;84.00;;;25.23;;
18170;SDS011;9210;48.358;10.902;2022-12-18T13:25:47;79.27;;;24.23;;
18170;SDS011;9210;48.358;10.902;2022-12-18T13:28:16;83.30;;;24.93;;
18170;SDS011;9210;48.358;10.902;2022-12-18T13:30:47;79.03;;;24.10;;
18170;SDS011;9210;48.358;10.902;2022-12-18T13:36:33;76.30;;;25.13;;
18170;SDS011;9210;48.358;10.902;2022-12-18T13:39:11;76.60;;;23.80;;
18170;SDS011;9210;48.358;10.902;2022-12-18T13:41:47;80.87;;;23.93;;
18170;SDS011;9210;48.358;10.902;2022-12-18T13:44:22;83.50;;;24.10;;
18170;SDS011;9210;48.358;10.902;2022-12-18T13:46:52;85.60;;;23.90;;
18170;SDS011;9210;48.358;10.902;2022-12-18T13:49:22;85.50;;;25.83;;
18170;SDS011;9210;48.358;10.902;2022-12-18T13:51:52;79.80;;;23.83;;
18170;SDS011;9210;48.358;10.902;2022-12-18T13:54:25;82.47;;;24.87;;
18170;SDS011;9210;48.358;10.902;2022-12-18T13:56:57;86.97;;;25.93;;
18170;SDS011;9210;48.358;10.902;2022-12-18T13:59:25;94.47;;;27.37;;
18170;SDS011;9210;48.358;10.902;2022-12-18T14:01:55;83.67;;;24.53;;
18170;SDS011;9210;48.358;10.902;2022-12-18T14:04:25;87.63;;;24.13;;
18170;SDS011;9210;48.358;10.902;2022-12-18T14:06:56;83.30;;;24.37;;
18170;SDS011;9210;48.358;10.902;2022-12-18T14:09:28;81.17;;;24.73;;
18170;SDS011;9210;48.358;10.902;2022-12-18T14:11:57;81.43;;;24.40;;
18170;SDS011;9210;48.358;10.902;2022-12-18T14:14:42;70.00;;;23.00;;
18170;SDS011;9210;48.358;10.902;2022-12-18T14:17:13;84.87;;;24.97;;
18170;SDS011;9210;48.358;10.902;2022-12-18T14:19:43;82.37;;;24.00;;
18170;SDS011;9210;48.358;10.902;2022-12-18T14:22:17;86.27;;;25.73;;
18170;SDS011;9210;48.358;10.902;2022-12-18T14:25:04;85.30;;;24.70;;
18170;SDS011;9210;48.358;10.902;2022-12-18T14:27:36;88.07;;;25.30;;
18170;SDS011;9210;48.358;10.902;2022-12-18T14:30:18;82.90;;;24.97;;
18170;SDS011;9210;48.358;10.902;2022-12-18T14:32:59;85.70;;;25.87;;
18170;SDS011;9210;48.358;10.902;2022-12-18T14:35:27;85.10;;;25.30;;
18170;SDS011;9210;48.358;10.902;2022-12-18T14:38:09;90.13;;;26.93;;
18170;SDS011;9210;48.358;10.902;2022-12-18T14:40:39;99.17;;;28.37;;
18170;SDS011;9210;48.358;10.902;2022-12-18T14:43:08;89.70;;;26.10;;
18170;SDS011;9210;48.358;10.902;2022-12-18T14:45:38;89.17;;;25.20;;
18170;SDS011;9210;48.358;10.902;2022-12-18T14:48:09;87.83;;;24.80;;
18170;SDS011;9210;48.358;10.902;2022-12-18T14:50:55;94.63;;;26.00;;
18170;SDS011;9210;48.358;10.902;2022-12-18T14:53:27;81.50;;;24.37;;
18170;SDS011;9210;48.358;10.902;2022-12-18T14:55:59;82.10;;;24.37;;
18170;SDS011;9210;48.358;10.902;2022-12-18T14:58:28;88.40;;;25.87;;